Belleview, Kentucky
Current Conditions -  °F | °C
As of 1:52 AM on Sunday 23 Nov 2014 (Local Time) from KCVG Reporting Station
Broken Clouds Broken Clouds  
Wind Chill: 52°   Ceiling: 8000
Heat Index: 52°   Visibility: 10mi
Dew Point: 34°   Wind: 8mph
Humidity: 50%   Direction: 190°S
Pressure: 30.04"   Gusts: NA
Location:  39.0238°N, 84.7647°W
Report Text: KCVG 230652Z 19007KT 10SM SCT055 BKN080 11/01 A3004 RMK AO2 SLP168 T01110011
Loading
Personal Weather Stations






























Interactive Weather Map New forecast layout! Learn more

10-Day Weather Forecast

Advertisements
Track Severe Weather on mobile